N852SB BGBW-BIKF
Flight info
| Callsign | N852SB |
|---|---|
| Flight time | 2h 8m |
| Altitude | 29000 |
| Route | 6145N DCT 6240N DCT 6335N DCT ELDIS ELDIS4K |
| Aircraft | TBM9/L-SDFGRWY/S |
Departure
| Time | 2026-04-28 19:15 |
|---|---|
| Airport | Narsarsuaq Airport (BGBW) |
Arrival
| Time | 2026-04-28 21:23 |
|---|---|
| Airport | Keflavik International Airport (BIKF) |
| Time | Latitude | Longitude | Altitude | Speed | Heading |
|---|---|---|---|---|---|
| 2026-04-28 19:09 | 61.16310 | -45.41548 | 76 ft | 0 kts | 127° |
| 2026-04-28 19:12 | 61.16312 | -45.41532 | -54 ft | 4 kts | 31° |
| 2026-04-28 19:12 | 61.16323 | -45.41585 | 203 ft | 6 kts | 275° |
| 2026-04-28 19:12 | 61.16313 | -45.41671 | 205 ft | 7 kts | 238° |
| 2026-04-28 19:13 | 61.16315 | -45.41768 | 206 ft | 8 kts | 304° |
| 2026-04-28 19:13 | 61.16351 | -45.41864 | 204 ft | 9 kts | 308° |
| 2026-04-28 19:13 | 61.16404 | -45.41946 | 200 ft | 11 kts | 8° |
| 2026-04-28 19:13 | 61.16476 | -45.41850 | 203 ft | 15 kts | 39° |
| 2026-04-28 19:14 | 61.16566 | -45.41691 | 201 ft | 17 kts | 43° |
| 2026-04-28 19:14 | 61.16638 | -45.41517 | 200 ft | 11 kts | 31° |
| 2026-04-28 19:14 | 61.16640 | -45.41564 | 200 ft | 11 kts | 221° |
| 2026-04-28 19:14 | 61.16409 | -45.41973 | 200 ft | 77 kts | 220° |
| 2026-04-28 19:15 | 61.15865 | -45.42949 | 293 ft | 119 kts | 220° |
| 2026-04-28 19:15 | 61.15183 | -45.44142 | 626 ft | 141 kts | 219° |
| 2026-04-28 19:15 | 61.14301 | -45.45255 | 1037 ft | 157 kts | 199° |
| 2026-04-28 19:15 | 61.13568 | -45.45537 | 1298 ft | 165 kts | 186° |
| 2026-04-28 19:16 | 61.12013 | -45.45077 | 1950 ft | 177 kts | 163° |
| 2026-04-28 19:16 | 61.10806 | -45.44244 | 2372 ft | 187 kts | 164° |
| 2026-04-28 19:16 | 61.09520 | -45.43448 | 2809 ft | 195 kts | 166° |
| 2026-04-28 19:16 | 61.08207 | -45.42653 | 3280 ft | 197 kts | 162° |
| 2026-04-28 19:17 | 61.06941 | -45.41510 | 3654 ft | 204 kts | 159° |
| 2026-04-28 19:17 | 61.05601 | -45.40389 | 3971 ft | 210 kts | 161° |
| 2026-04-28 19:17 | 61.04235 | -45.39231 | 4375 ft | 214 kts | 161° |
| 2026-04-28 19:17 | 61.02860 | -45.38132 | 4991 ft | 208 kts | 161° |
| 2026-04-28 19:18 | 61.01492 | -45.37100 | 5332 ft | 215 kts | 163° |
| 2026-04-28 19:18 | 61.00088 | -45.35801 | 5704 ft | 221 kts | 148° |
| 2026-04-28 19:18 | 60.99035 | -45.33542 | 6082 ft | 222 kts | 119° |
| 2026-04-28 19:18 | 60.98588 | -45.30525 | 6389 ft | 222 kts | 90° |
| 2026-04-28 19:19 | 60.98747 | -45.27426 | 6859 ft | 212 kts | 78° |
| 2026-04-28 19:19 | 60.98937 | -45.24409 | 7401 ft | 212 kts | 79° |
| 2026-04-28 19:19 | 60.99088 | -45.21357 | 7933 ft | 215 kts | 81° |
| 2026-04-28 19:19 | 60.99188 | -45.18244 | 8433 ft | 217 kts | 82° |
| 2026-04-28 19:20 | 60.99254 | -45.15151 | 9069 ft | 212 kts | 82° |
| 2026-04-28 19:20 | 60.99312 | -45.12125 | 9483 ft | 214 kts | 78° |
| 2026-04-28 19:20 | 60.99515 | -45.09040 | 9900 ft | 219 kts | 74° |
| 2026-04-28 19:20 | 60.99708 | -45.05909 | 10398 ft | 221 kts | 76° |
| 2026-04-28 19:21 | 60.99858 | -45.02793 | 10841 ft | 224 kts | 77° |
| 2026-04-28 19:21 | 61.00110 | -44.99597 | 11250 ft | 221 kts | 63° |
| 2026-04-28 19:21 | 61.00734 | -44.96739 | 11709 ft | 218 kts | 54° |
| 2026-04-28 19:21 | 61.01370 | -44.93913 | 12211 ft | 222 kts | 56° |
| 2026-04-28 19:22 | 61.02020 | -44.90980 | 12703 ft | 225 kts | 55° |
| 2026-04-28 19:22 | 61.02461 | -44.89008 | 13024 ft | 227 kts | 55° |
| 2026-04-28 19:22 | 61.03350 | -44.85046 | 13643 ft | 231 kts | 55° |
| 2026-04-28 19:22 | 61.04026 | -44.82027 | 14073 ft | 233 kts | 55° |
| 2026-04-28 19:23 | 61.04709 | -44.78961 | 14484 ft | 235 kts | 55° |
| 2026-04-28 19:23 | 61.05387 | -44.75924 | 14940 ft | 236 kts | 55° |
| 2026-04-28 19:23 | 61.06075 | -44.72827 | 15450 ft | 239 kts | 55° |
| 2026-04-28 19:23 | 61.06773 | -44.69687 | 15884 ft | 240 kts | 55° |
| 2026-04-28 19:24 | 61.07472 | -44.66550 | 16318 ft | 241 kts | 54° |
| 2026-04-28 19:24 | 61.08185 | -44.63391 | 16756 ft | 243 kts | 54° |
| 2026-04-28 19:24 | 61.08889 | -44.60190 | 17196 ft | 245 kts | 55° |
| 2026-04-28 19:24 | 61.09591 | -44.56966 | 17638 ft | 247 kts | 55° |
| 2026-04-28 19:25 | 61.10295 | -44.53697 | 18071 ft | 249 kts | 55° |
| 2026-04-28 19:25 | 61.11012 | -44.50456 | 18455 ft | 250 kts | 54° |
| 2026-04-28 19:25 | 61.11748 | -44.47166 | 18828 ft | 252 kts | 54° |
| 2026-04-28 19:25 | 61.12481 | -44.43840 | 19202 ft | 254 kts | 55° |
| 2026-04-28 19:26 | 61.13204 | -44.40533 | 19563 ft | 256 kts | 55° |
| 2026-04-28 19:26 | 61.13943 | -44.37151 | 19935 ft | 258 kts | 55° |
| 2026-04-28 19:26 | 61.14688 | -44.33744 | 20299 ft | 259 kts | 55° |
| 2026-04-28 19:26 | 61.15428 | -44.30355 | 20652 ft | 261 kts | 55° |
| 2026-04-28 19:27 | 61.16178 | -44.26912 | 21008 ft | 263 kts | 55° |
| 2026-04-28 19:27 | 61.16931 | -44.23450 | 21362 ft | 265 kts | 55° |
| 2026-04-28 19:27 | 61.17693 | -44.19938 | 21713 ft | 267 kts | 55° |
| 2026-04-28 19:27 | 61.18456 | -44.16420 | 22052 ft | 269 kts | 55° |
| 2026-04-28 19:28 | 61.19225 | -44.12865 | 22397 ft | 271 kts | 55° |
| 2026-04-28 19:28 | 61.19996 | -44.09289 | 22756 ft | 272 kts | 55° |
| 2026-04-28 19:28 | 61.20774 | -44.05684 | 23115 ft | 274 kts | 55° |
| 2026-04-28 19:28 | 61.21547 | -44.02097 | 23445 ft | 276 kts | 55° |
| 2026-04-28 19:29 | 61.22333 | -43.98437 | 23756 ft | 278 kts | 56° |
| 2026-04-28 19:29 | 61.22864 | -43.95960 | 23954 ft | 279 kts | 56° |
| 2026-04-28 19:29 | 61.23910 | -43.91072 | 24328 ft | 280 kts | 57° |
| 2026-04-28 19:29 | 61.24709 | -43.87336 | 24605 ft | 282 kts | 57° |
| 2026-04-28 19:30 | 61.25497 | -43.83641 | 24872 ft | 283 kts | 58° |
| 2026-04-28 19:30 | 61.26298 | -43.79885 | 25149 ft | 284 kts | 58° |
| 2026-04-28 19:30 | 61.27096 | -43.76127 | 25424 ft | 284 kts | 59° |
| 2026-04-28 19:30 | 61.27899 | -43.72342 | 25687 ft | 286 kts | 59° |
| 2026-04-28 19:31 | 61.28706 | -43.68534 | 25973 ft | 287 kts | 60° |
| 2026-04-28 19:31 | 61.29503 | -43.64765 | 26244 ft | 288 kts | 60° |
| 2026-04-28 19:31 | 61.30312 | -43.60931 | 26554 ft | 289 kts | 61° |
| 2026-04-28 19:31 | 61.31122 | -43.57085 | 26820 ft | 290 kts | 62° |
| 2026-04-28 19:32 | 61.31924 | -43.53268 | 27091 ft | 291 kts | 62° |
| 2026-04-28 19:32 | 61.32726 | -43.49449 | 27348 ft | 292 kts | 62° |
| 2026-04-28 19:32 | 61.33543 | -43.45551 | 27605 ft | 294 kts | 63° |
| 2026-04-28 19:32 | 61.34353 | -43.41678 | 27859 ft | 295 kts | 63° |
| 2026-04-28 19:33 | 61.35170 | -43.37760 | 28117 ft | 296 kts | 63° |
| 2026-04-28 19:33 | 61.35995 | -43.33802 | 28367 ft | 298 kts | 64° |
| 2026-04-28 19:33 | 61.36824 | -43.29812 | 28584 ft | 299 kts | 64° |
| 2026-04-28 19:33 | 61.37651 | -43.25825 | 28644 ft | 307 kts | 64° |
| 2026-04-28 19:34 | 61.39388 | -43.17413 | 28649 ft | 321 kts | 65° |
| 2026-04-28 19:34 | 61.41179 | -43.08719 | 28634 ft | 331 kts | 65° |
| 2026-04-28 19:35 | 61.43010 | -42.99786 | 28624 ft | 337 kts | 65° |
| 2026-04-28 19:35 | 61.44870 | -42.90678 | 28615 ft | 341 kts | 65° |
| 2026-04-28 19:36 | 61.46719 | -42.81581 | 28609 ft | 343 kts | 65° |
| 2026-04-28 19:36 | 61.48580 | -42.72386 | 28613 ft | 344 kts | 65° |
| 2026-04-28 19:37 | 61.50136 | -42.64669 | 28609 ft | 345 kts | 65° |
| 2026-04-28 19:37 | 61.52308 | -42.53847 | 28609 ft | 346 kts | 65° |
| 2026-04-28 19:38 | 61.54164 | -42.44543 | 28607 ft | 347 kts | 66° |
| 2026-04-28 19:38 | 61.56020 | -42.35206 | 28605 ft | 348 kts | 66° |
| 2026-04-28 19:39 | 61.57871 | -42.25849 | 28600 ft | 348 kts | 66° |
| 2026-04-28 19:39 | 61.59732 | -42.16393 | 28602 ft | 349 kts | 66° |
| 2026-04-28 19:40 | 61.61580 | -42.06965 | 28597 ft | 349 kts | 66° |
| 2026-04-28 19:40 | 61.63420 | -41.97533 | 28597 ft | 349 kts | 66° |
| 2026-04-28 19:41 | 61.65255 | -41.88077 | 28597 ft | 349 kts | 66° |
| 2026-04-28 19:41 | 61.67085 | -41.78608 | 28601 ft | 350 kts | 66° |
| 2026-04-28 19:42 | 61.68905 | -41.69143 | 28594 ft | 350 kts | 66° |
| 2026-04-28 19:42 | 61.70425 | -41.61200 | 28599 ft | 350 kts | 66° |
| 2026-04-28 19:43 | 61.72540 | -41.50098 | 28597 ft | 350 kts | 67° |
| 2026-04-28 19:43 | 61.74351 | -41.40545 | 28598 ft | 350 kts | 67° |
| 2026-04-28 19:44 | 61.76145 | -41.31035 | 28599 ft | 350 kts | 67° |
| 2026-04-28 19:44 | 61.77949 | -41.21423 | 28599 ft | 350 kts | 67° |
| 2026-04-28 19:45 | 61.79731 | -41.11876 | 28599 ft | 350 kts | 67° |
| 2026-04-28 19:45 | 61.81507 | -41.02322 | 28601 ft | 350 kts | 68° |
| 2026-04-28 19:46 | 61.83288 | -40.92691 | 28598 ft | 350 kts | 68° |
| 2026-04-28 19:46 | 61.85049 | -40.83124 | 28596 ft | 350 kts | 68° |
| 2026-04-28 19:47 | 61.86804 | -40.73543 | 28600 ft | 349 kts | 68° |
| 2026-04-28 19:47 | 61.88550 | -40.63961 | 28599 ft | 349 kts | 68° |
| 2026-04-28 19:48 | 61.90303 | -40.54293 | 28598 ft | 349 kts | 68° |
| 2026-04-28 19:48 | 61.92031 | -40.44717 | 28594 ft | 349 kts | 68° |
| 2026-04-28 19:49 | 61.93767 | -40.35044 | 28597 ft | 349 kts | 69° |
| 2026-04-28 19:49 | 61.95485 | -40.25429 | 28596 ft | 349 kts | 69° |
| 2026-04-28 19:50 | 61.98047 | -40.10996 | 28594 ft | 348 kts | 69° |
| 2026-04-28 19:51 | 61.99465 | -40.02961 | 28597 ft | 348 kts | 69° |
| 2026-04-28 19:51 | 62.01445 | -39.93525 | 28595 ft | 347 kts | 63° |
| 2026-04-28 19:52 | 62.03514 | -39.84267 | 28596 ft | 347 kts | 64° |
| 2026-04-28 19:52 | 62.05584 | -39.74991 | 28594 ft | 347 kts | 64° |
| 2026-04-28 19:53 | 62.07655 | -39.65666 | 28596 ft | 347 kts | 64° |
| 2026-04-28 19:53 | 62.09710 | -39.56366 | 28594 ft | 347 kts | 64° |
| 2026-04-28 19:54 | 62.11758 | -39.47064 | 28594 ft | 347 kts | 64° |
| 2026-04-28 19:54 | 62.13805 | -39.37723 | 28591 ft | 347 kts | 65° |
| 2026-04-28 19:55 | 62.15851 | -39.28346 | 28592 ft | 347 kts | 65° |
| 2026-04-28 19:55 | 62.17885 | -39.18977 | 28594 ft | 347 kts | 65° |
| 2026-04-28 19:56 | 62.19921 | -39.09561 | 28595 ft | 348 kts | 65° |
| 2026-04-28 19:56 | 62.21940 | -39.00183 | 28590 ft | 348 kts | 65° |
| 2026-04-28 19:57 | 62.23962 | -38.90747 | 28589 ft | 348 kts | 65° |
| 2026-04-28 19:57 | 62.25969 | -38.81338 | 28602 ft | 348 kts | 66° |
| 2026-04-28 19:58 | 62.27972 | -38.71910 | 28595 ft | 348 kts | 66° |
| 2026-04-28 19:58 | 62.29979 | -38.62415 | 28596 ft | 348 kts | 66° |
| 2026-04-28 19:59 | 62.31978 | -38.52918 | 28594 ft | 348 kts | 66° |
| 2026-04-28 19:59 | 62.33962 | -38.43444 | 28592 ft | 348 kts | 66° |
| 2026-04-28 20:00 | 62.35944 | -38.33942 | 28589 ft | 348 kts | 66° |
| 2026-04-28 20:00 | 62.37918 | -38.24434 | 28584 ft | 348 kts | 67° |
| 2026-04-28 20:01 | 62.39896 | -38.14862 | 28591 ft | 348 kts | 67° |
| 2026-04-28 20:01 | 62.41856 | -38.05329 | 28590 ft | 349 kts | 67° |
| 2026-04-28 20:02 | 62.43812 | -37.95777 | 28589 ft | 349 kts | 67° |
| 2026-04-28 20:02 | 62.45776 | -37.86138 | 28585 ft | 349 kts | 68° |
| 2026-04-28 20:03 | 62.47717 | -37.76568 | 28584 ft | 349 kts | 68° |
| 2026-04-28 20:03 | 62.49667 | -37.66904 | 28590 ft | 349 kts | 68° |
| 2026-04-28 20:04 | 62.51600 | -37.57285 | 28584 ft | 350 kts | 68° |
| 2026-04-28 20:04 | 62.53529 | -37.47634 | 28587 ft | 350 kts | 68° |
| 2026-04-28 20:05 | 62.55468 | -37.37890 | 28581 ft | 350 kts | 68° |
| 2026-04-28 20:05 | 62.57387 | -37.28205 | 28574 ft | 351 kts | 69° |
| 2026-04-28 20:06 | 62.59307 | -37.18460 | 28575 ft | 351 kts | 69° |
| 2026-04-28 20:06 | 62.61214 | -37.08740 | 28577 ft | 351 kts | 69° |
| 2026-04-28 20:07 | 62.63134 | -36.98902 | 28565 ft | 352 kts | 69° |
| 2026-04-28 20:07 | 62.65033 | -36.89129 | 28563 ft | 352 kts | 69° |
| 2026-04-28 20:08 | 62.66923 | -36.79348 | 28570 ft | 352 kts | 70° |
| 2026-04-28 20:08 | 62.68817 | -36.69505 | 28568 ft | 352 kts | 70° |
| 2026-04-28 20:09 | 62.70709 | -36.59623 | 28563 ft | 353 kts | 70° |
| 2026-04-28 20:09 | 62.72585 | -36.49770 | 28564 ft | 353 kts | 70° |
| 2026-04-28 20:10 | 62.74460 | -36.39879 | 28559 ft | 353 kts | 70° |
| 2026-04-28 20:10 | 62.76335 | -36.29935 | 28558 ft | 353 kts | 70° |
| 2026-04-28 20:11 | 62.78199 | -36.20005 | 28554 ft | 354 kts | 71° |
| 2026-04-28 20:11 | 62.80053 | -36.10076 | 28554 ft | 354 kts | 71° |
| 2026-04-28 20:12 | 62.81902 | -36.00118 | 28555 ft | 354 kts | 71° |
| 2026-04-28 20:12 | 62.83753 | -35.90105 | 28546 ft | 355 kts | 71° |
| 2026-04-28 20:13 | 62.85602 | -35.80051 | 28548 ft | 355 kts | 71° |
| 2026-04-28 20:13 | 62.87437 | -35.70021 | 28543 ft | 355 kts | 71° |
| 2026-04-28 20:14 | 62.89271 | -35.59943 | 28543 ft | 356 kts | 72° |
| 2026-04-28 20:14 | 62.91094 | -35.49871 | 28541 ft | 356 kts | 72° |
| 2026-04-28 20:15 | 62.92923 | -35.39720 | 28533 ft | 357 kts | 72° |
| 2026-04-28 20:15 | 62.94733 | -35.29616 | 28533 ft | 357 kts | 72° |
| 2026-04-28 20:16 | 62.96551 | -35.19415 | 28533 ft | 357 kts | 72° |
| 2026-04-28 20:16 | 62.98352 | -35.09260 | 28533 ft | 358 kts | 72° |
| 2026-04-28 20:17 | 63.00091 | -34.98956 | 28537 ft | 355 kts | 79° |
| 2026-04-28 20:17 | 63.01176 | -34.88408 | 28539 ft | 355 kts | 82° |
| 2026-04-28 20:18 | 63.02283 | -34.77827 | 28532 ft | 355 kts | 83° |
| 2026-04-28 20:18 | 63.03355 | -34.67232 | 28525 ft | 355 kts | 83° |
| 2026-04-28 20:19 | 63.04438 | -34.56577 | 28529 ft | 355 kts | 83° |
| 2026-04-28 20:19 | 63.05507 | -34.45908 | 28528 ft | 355 kts | 83° |
| 2026-04-28 20:20 | 63.06566 | -34.35281 | 28525 ft | 355 kts | 83° |
| 2026-04-28 20:20 | 63.07615 | -34.24660 | 28522 ft | 356 kts | 83° |
| 2026-04-28 20:21 | 63.08664 | -34.13943 | 28527 ft | 356 kts | 84° |
| 2026-04-28 20:21 | 63.09699 | -34.03293 | 28525 ft | 356 kts | 84° |
| 2026-04-28 20:22 | 63.10734 | -33.92542 | 28527 ft | 356 kts | 84° |
| 2026-04-28 20:22 | 63.11752 | -33.81884 | 28525 ft | 356 kts | 84° |
| 2026-04-28 20:23 | 63.12765 | -33.71182 | 28525 ft | 357 kts | 84° |
| 2026-04-28 20:23 | 63.13775 | -33.60415 | 28532 ft | 357 kts | 84° |
| 2026-04-28 20:24 | 63.14773 | -33.49682 | 28529 ft | 357 kts | 85° |
| 2026-04-28 20:24 | 63.15763 | -33.38943 | 28527 ft | 357 kts | 85° |
| 2026-04-28 20:25 | 63.16748 | -33.28171 | 28528 ft | 357 kts | 85° |
| 2026-04-28 20:25 | 63.17729 | -33.17328 | 28532 ft | 358 kts | 85° |
| 2026-04-28 20:26 | 63.18695 | -33.06559 | 28530 ft | 358 kts | 85° |
| 2026-04-28 20:26 | 63.19658 | -32.95734 | 28530 ft | 358 kts | 86° |
| 2026-04-28 20:27 | 63.20611 | -32.84917 | 28526 ft | 359 kts | 86° |
| 2026-04-28 20:27 | 63.21558 | -32.74057 | 28529 ft | 359 kts | 86° |
| 2026-04-28 20:28 | 63.22499 | -32.63184 | 28527 ft | 359 kts | 86° |
| 2026-04-28 20:28 | 63.23428 | -32.52328 | 28532 ft | 359 kts | 86° |
| 2026-04-28 20:29 | 63.24356 | -32.41388 | 28529 ft | 359 kts | 87° |
| 2026-04-28 20:29 | 63.25118 | -32.32328 | 28530 ft | 359 kts | 87° |
| 2026-04-28 20:30 | 63.26177 | -32.19601 | 28533 ft | 360 kts | 87° |
| 2026-04-28 20:30 | 63.26928 | -32.10489 | 28538 ft | 360 kts | 88° |
| 2026-04-28 20:31 | 63.27823 | -31.99543 | 28537 ft | 360 kts | 88° |
| 2026-04-28 20:31 | 63.28711 | -31.88555 | 28532 ft | 360 kts | 88° |
| 2026-04-28 20:32 | 63.29586 | -31.77628 | 28532 ft | 360 kts | 88° |
| 2026-04-28 20:32 | 63.30457 | -31.66633 | 28542 ft | 361 kts | 89° |
| 2026-04-28 20:33 | 63.31321 | -31.55619 | 28541 ft | 361 kts | 89° |
| 2026-04-28 20:33 | 63.32175 | -31.44596 | 28548 ft | 364 kts | 89° |
| 2026-04-28 20:34 | 63.33031 | -31.33426 | 28550 ft | 368 kts | 89° |
| 2026-04-28 20:34 | 63.33884 | -31.22236 | 28551 ft | 368 kts | 89° |
| 2026-04-28 20:35 | 63.34727 | -31.10983 | 28552 ft | 368 kts | 90° |
| 2026-04-28 20:35 | 63.35564 | -30.99727 | 28558 ft | 369 kts | 90° |
| 2026-04-28 20:36 | 63.36394 | -30.88425 | 28555 ft | 369 kts | 90° |
| 2026-04-28 20:36 | 63.37213 | -30.77152 | 28564 ft | 369 kts | 91° |
| 2026-04-28 20:37 | 63.38029 | -30.65773 | 28564 ft | 370 kts | 91° |
| 2026-04-28 20:37 | 63.38830 | -30.54491 | 28566 ft | 370 kts | 91° |
| 2026-04-28 20:38 | 63.39624 | -30.43169 | 28571 ft | 370 kts | 91° |
| 2026-04-28 20:38 | 63.40410 | -30.31822 | 28575 ft | 370 kts | 92° |
| 2026-04-28 20:39 | 63.41191 | -30.20407 | 28577 ft | 371 kts | 92° |
| 2026-04-28 20:39 | 63.41962 | -30.09015 | 28584 ft | 371 kts | 92° |
| 2026-04-28 20:40 | 63.42721 | -29.97653 | 28586 ft | 371 kts | 92° |
| 2026-04-28 20:40 | 63.43472 | -29.86257 | 28591 ft | 372 kts | 93° |
| 2026-04-28 20:41 | 63.44220 | -29.74788 | 28593 ft | 372 kts | 93° |
| 2026-04-28 20:41 | 63.44955 | -29.63349 | 28596 ft | 372 kts | 94° |
| 2026-04-28 20:42 | 63.45682 | -29.51904 | 28602 ft | 372 kts | 94° |
| 2026-04-28 20:42 | 63.46403 | -29.40396 | 28604 ft | 372 kts | 94° |
| 2026-04-28 20:43 | 63.47108 | -29.28990 | 28608 ft | 372 kts | 94° |
| 2026-04-28 20:43 | 63.47809 | -29.17485 | 28615 ft | 372 kts | 95° |
| 2026-04-28 20:44 | 63.48501 | -29.05975 | 28618 ft | 372 kts | 95° |
| 2026-04-28 20:44 | 63.49185 | -28.94455 | 28624 ft | 372 kts | 95° |
| 2026-04-28 20:45 | 63.49853 | -28.83025 | 28633 ft | 372 kts | 95° |
| 2026-04-28 20:45 | 63.50516 | -28.71513 | 28528 ft | 373 kts | 95° |
| 2026-04-28 20:46 | 63.51153 | -28.60005 | 28499 ft | 369 kts | 98° |
| 2026-04-28 20:46 | 63.51401 | -28.48604 | 28563 ft | 364 kts | 102° |
| 2026-04-28 20:47 | 63.51871 | -28.37193 | 28650 ft | 375 kts | 94° |
| 2026-04-28 20:47 | 63.52613 | -28.25702 | 28648 ft | 371 kts | 97° |
| 2026-04-28 20:48 | 63.53190 | -28.14195 | 28656 ft | 372 kts | 96° |
| 2026-04-28 20:48 | 63.53843 | -28.02676 | 28660 ft | 371 kts | 97° |
| 2026-04-28 20:49 | 63.54439 | -27.91208 | 28664 ft | 371 kts | 97° |
| 2026-04-28 20:49 | 63.55048 | -27.79738 | 28670 ft | 371 kts | 97° |
| 2026-04-28 20:50 | 63.55641 | -27.68204 | 28673 ft | 371 kts | 97° |
| 2026-04-28 20:50 | 63.56224 | -27.56768 | 28679 ft | 370 kts | 97° |
| 2026-04-28 20:51 | 63.56798 | -27.45266 | 28684 ft | 370 kts | 98° |
| 2026-04-28 20:51 | 63.57362 | -27.33818 | 28686 ft | 370 kts | 98° |
| 2026-04-28 20:52 | 63.57919 | -27.22291 | 28688 ft | 370 kts | 98° |
| 2026-04-28 20:52 | 63.58483 | -27.10448 | 28697 ft | 369 kts | 98° |
| 2026-04-28 20:53 | 63.59264 | -26.93659 | 28704 ft | 369 kts | 99° |
| 2026-04-28 20:53 | 63.59786 | -26.82189 | 28704 ft | 369 kts | 99° |
| 2026-04-28 20:54 | 63.60300 | -26.70694 | 28694 ft | 369 kts | 99° |
| 2026-04-28 20:54 | 63.60551 | -26.64931 | 28294 ft | 370 kts | 99° |
| 2026-04-28 20:54 | 63.60803 | -26.59144 | 27812 ft | 371 kts | 99° |
| 2026-04-28 20:55 | 63.61052 | -26.53425 | 27332 ft | 371 kts | 100° |
| 2026-04-28 20:55 | 63.61301 | -26.47624 | 26843 ft | 371 kts | 100° |
| 2026-04-28 20:55 | 63.61545 | -26.41835 | 26355 ft | 371 kts | 100° |
| 2026-04-28 20:55 | 63.61785 | -26.36123 | 25875 ft | 372 kts | 100° |
| 2026-04-28 20:56 | 63.62027 | -26.30289 | 25385 ft | 372 kts | 100° |
| 2026-04-28 20:56 | 63.62267 | -26.24485 | 24894 ft | 372 kts | 100° |
| 2026-04-28 20:56 | 63.62500 | -26.18739 | 24418 ft | 372 kts | 100° |
| 2026-04-28 20:56 | 63.62735 | -26.12898 | 23922 ft | 372 kts | 100° |
| 2026-04-28 20:57 | 63.62965 | -26.07162 | 23438 ft | 372 kts | 100° |
| 2026-04-28 20:57 | 63.63194 | -26.01364 | 22906 ft | 371 kts | 100° |
| 2026-04-28 20:57 | 63.63422 | -25.95596 | 22414 ft | 369 kts | 100° |
| 2026-04-28 20:57 | 63.63648 | -25.89836 | 21928 ft | 366 kts | 100° |
| 2026-04-28 20:58 | 63.63867 | -25.84107 | 21456 ft | 364 kts | 100° |
| 2026-04-28 20:58 | 63.64079 | -25.78488 | 20969 ft | 362 kts | 100° |
| 2026-04-28 20:58 | 63.64290 | -25.72854 | 20504 ft | 361 kts | 99° |
| 2026-04-28 20:58 | 63.64500 | -25.67227 | 20026 ft | 359 kts | 99° |
| 2026-04-28 20:59 | 63.64706 | -25.61628 | 19559 ft | 358 kts | 99° |
| 2026-04-28 20:59 | 63.64908 | -25.56053 | 19090 ft | 356 kts | 99° |
| 2026-04-28 20:59 | 63.65105 | -25.50578 | 18632 ft | 355 kts | 99° |
| 2026-04-28 20:59 | 63.65303 | -25.45031 | 18166 ft | 353 kts | 99° |
| 2026-04-28 21:00 | 63.65497 | -25.39514 | 17667 ft | 351 kts | 99° |
| 2026-04-28 21:00 | 63.65689 | -25.34041 | 17200 ft | 348 kts | 99° |
| 2026-04-28 21:00 | 63.65875 | -25.28689 | 16749 ft | 345 kts | 99° |
| 2026-04-28 21:00 | 63.66057 | -25.23322 | 16297 ft | 342 kts | 99° |
| 2026-04-28 21:01 | 63.66236 | -25.17979 | 15853 ft | 340 kts | 98° |
| 2026-04-28 21:01 | 63.66413 | -25.12667 | 15409 ft | 338 kts | 98° |
| 2026-04-28 21:01 | 63.66587 | -25.07380 | 14961 ft | 336 kts | 98° |
| 2026-04-28 21:01 | 63.66756 | -25.02193 | 14525 ft | 334 kts | 98° |
| 2026-04-28 21:02 | 63.66924 | -24.96987 | 14085 ft | 333 kts | 98° |
| 2026-04-28 21:02 | 63.67090 | -24.91810 | 13647 ft | 326 kts | 98° |
| 2026-04-28 21:02 | 63.67257 | -24.86752 | 13190 ft | 321 kts | 98° |
| 2026-04-28 21:02 | 63.67412 | -24.81828 | 12780 ft | 316 kts | 98° |
| 2026-04-28 21:03 | 63.67771 | -24.76897 | 12351 ft | 324 kts | 84° |
| 2026-04-28 21:03 | 63.68603 | -24.72124 | 12101 ft | 326 kts | 71° |
| 2026-04-28 21:03 | 63.69725 | -24.67771 | 11911 ft | 320 kts | 66° |
| 2026-04-28 21:03 | 63.70841 | -24.63442 | 11716 ft | 314 kts | 68° |
| 2026-04-28 21:04 | 63.71917 | -24.59173 | 11510 ft | 310 kts | 68° |
| 2026-04-28 21:04 | 63.72977 | -24.55005 | 11320 ft | 308 kts | 67° |
| 2026-04-28 21:04 | 63.74046 | -24.50832 | 11122 ft | 306 kts | 67° |
| 2026-04-28 21:04 | 63.75107 | -24.46669 | 10921 ft | 305 kts | 68° |
| 2026-04-28 21:05 | 63.76157 | -24.42527 | 10721 ft | 302 kts | 68° |
| 2026-04-28 21:05 | 63.77203 | -24.38406 | 10524 ft | 302 kts | 68° |
| 2026-04-28 21:05 | 63.78245 | -24.34281 | 10329 ft | 302 kts | 68° |
| 2026-04-28 21:05 | 63.79286 | -24.30153 | 10133 ft | 302 kts | 67° |
| 2026-04-28 21:06 | 63.80324 | -24.26038 | 9936 ft | 301 kts | 67° |
| 2026-04-28 21:06 | 63.81353 | -24.21954 | 9739 ft | 300 kts | 67° |
| 2026-04-28 21:06 | 63.82384 | -24.17851 | 9529 ft | 298 kts | 67° |
| 2026-04-28 21:06 | 63.83405 | -24.13780 | 9342 ft | 293 kts | 67° |
| 2026-04-28 21:07 | 63.84393 | -24.09853 | 9218 ft | 287 kts | 68° |
| 2026-04-28 21:07 | 63.85058 | -24.07195 | 9115 ft | 284 kts | 68° |
| 2026-04-28 21:07 | 63.86335 | -24.02066 | 8875 ft | 281 kts | 68° |
| 2026-04-28 21:07 | 63.87296 | -23.98196 | 8685 ft | 283 kts | 68° |
| 2026-04-28 21:08 | 63.88268 | -23.94266 | 8500 ft | 287 kts | 68° |
| 2026-04-28 21:08 | 63.89248 | -23.90308 | 8310 ft | 288 kts | 67° |
| 2026-04-28 21:08 | 63.90221 | -23.86388 | 8123 ft | 288 kts | 67° |
| 2026-04-28 21:08 | 63.90883 | -23.83716 | 7998 ft | 287 kts | 67° |
| 2026-04-28 21:09 | 63.91860 | -23.79762 | 7810 ft | 287 kts | 67° |
| 2026-04-28 21:09 | 63.92824 | -23.75844 | 7616 ft | 286 kts | 67° |
| 2026-04-28 21:09 | 63.93797 | -23.71894 | 7434 ft | 285 kts | 67° |
| 2026-04-28 21:09 | 63.94762 | -23.67962 | 7244 ft | 284 kts | 67° |
| 2026-04-28 21:10 | 63.95718 | -23.64060 | 7057 ft | 282 kts | 67° |
| 2026-04-28 21:10 | 63.96668 | -23.60175 | 6873 ft | 281 kts | 67° |
| 2026-04-28 21:10 | 63.97620 | -23.56278 | 6693 ft | 280 kts | 67° |
| 2026-04-28 21:10 | 63.98563 | -23.52404 | 6503 ft | 279 kts | 67° |
| 2026-04-28 21:11 | 63.99506 | -23.48530 | 6327 ft | 278 kts | 67° |
| 2026-04-28 21:11 | 64.00433 | -23.44712 | 6135 ft | 277 kts | 67° |
| 2026-04-28 21:11 | 64.01365 | -23.40875 | 5945 ft | 274 kts | 67° |
| 2026-04-28 21:11 | 64.02288 | -23.37061 | 5761 ft | 272 kts | 67° |
| 2026-04-28 21:12 | 64.03198 | -23.33291 | 5583 ft | 270 kts | 67° |
| 2026-04-28 21:12 | 64.04106 | -23.29528 | 5411 ft | 268 kts | 67° |
| 2026-04-28 21:12 | 64.04992 | -23.25848 | 5235 ft | 267 kts | 67° |
| 2026-04-28 21:12 | 64.05881 | -23.22148 | 5064 ft | 264 kts | 68° |
| 2026-04-28 21:13 | 64.06762 | -23.18484 | 4887 ft | 262 kts | 68° |
| 2026-04-28 21:13 | 64.07635 | -23.14836 | 4718 ft | 260 kts | 68° |
| 2026-04-28 21:13 | 64.08502 | -23.11213 | 4549 ft | 258 kts | 68° |
| 2026-04-28 21:13 | 64.09350 | -23.07664 | 4371 ft | 257 kts | 68° |
| 2026-04-28 21:14 | 64.10210 | -23.04056 | 4205 ft | 255 kts | 68° |
| 2026-04-28 21:14 | 64.11048 | -23.00531 | 4039 ft | 254 kts | 68° |
| 2026-04-28 21:14 | 64.11892 | -22.96982 | 3860 ft | 253 kts | 68° |
| 2026-04-28 21:14 | 64.12724 | -22.93471 | 3711 ft | 252 kts | 68° |
| 2026-04-28 21:15 | 64.13558 | -22.89949 | 3550 ft | 250 kts | 68° |
| 2026-04-28 21:15 | 64.14390 | -22.86431 | 3379 ft | 249 kts | 68° |
| 2026-04-28 21:15 | 64.15215 | -22.82933 | 3218 ft | 250 kts | 68° |
| 2026-04-28 21:15 | 64.16006 | -22.79564 | 3061 ft | 253 kts | 68° |
| 2026-04-28 21:16 | 64.16768 | -22.75987 | 3004 ft | 244 kts | 81° |
| 2026-04-28 21:16 | 64.17018 | -22.72261 | 2896 ft | 232 kts | 94° |
| 2026-04-28 21:16 | 64.17185 | -22.68550 | 2709 ft | 232 kts | 93° |
| 2026-04-28 21:16 | 64.17363 | -22.65036 | 2516 ft | 219 kts | 92° |
| 2026-04-28 21:17 | 64.17364 | -22.61721 | 2361 ft | 197 kts | 115° |
| 2026-04-28 21:17 | 64.16734 | -22.59355 | 2318 ft | 161 kts | 154° |
| 2026-04-28 21:17 | 64.15718 | -22.58895 | 2284 ft | 150 kts | 196° |
| 2026-04-28 21:17 | 64.14805 | -22.60117 | 2244 ft | 152 kts | 208° |
| 2026-04-28 21:18 | 64.13874 | -22.60496 | 2173 ft | 137 kts | 184° |
| 2026-04-28 21:18 | 64.12900 | -22.60548 | 2103 ft | 142 kts | 186° |
| 2026-04-28 21:18 | 64.11910 | -22.60567 | 2075 ft | 141 kts | 184° |
| 2026-04-28 21:18 | 64.10948 | -22.60553 | 2049 ft | 138 kts | 184° |
| 2026-04-28 21:19 | 64.09970 | -22.60561 | 1920 ft | 142 kts | 184° |
| 2026-04-28 21:19 | 64.08999 | -22.60549 | 1808 ft | 141 kts | 184° |
| 2026-04-28 21:19 | 64.08021 | -22.60559 | 1809 ft | 138 kts | 184° |
| 2026-04-28 21:19 | 64.07079 | -22.60546 | 1802 ft | 133 kts | 185° |
| 2026-04-28 21:20 | 64.06226 | -22.60551 | 1697 ft | 110 kts | 185° |
| 2026-04-28 21:20 | 64.05479 | -22.60552 | 1544 ft | 105 kts | 186° |
| 2026-04-28 21:20 | 64.04777 | -22.60544 | 1409 ft | 97 kts | 185° |
| 2026-04-28 21:20 | 64.04114 | -22.60552 | 1270 ft | 93 kts | 185° |
| 2026-04-28 21:21 | 64.03488 | -22.60546 | 1136 ft | 82 kts | 185° |
| 2026-04-28 21:21 | 64.02935 | -22.60552 | 1012 ft | 75 kts | 185° |
| 2026-04-28 21:21 | 64.02485 | -22.60547 | 922 ft | 61 kts | 184° |
| 2026-04-28 21:21 | 64.02056 | -22.60538 | 815 ft | 64 kts | 184° |
| 2026-04-28 21:22 | 64.01576 | -22.60540 | 697 ft | 70 kts | 183° |
| 2026-04-28 21:22 | 64.01101 | -22.60554 | 578 ft | 66 kts | 182° |
| 2026-04-28 21:22 | 64.00660 | -22.60536 | 489 ft | 63 kts | 185° |
| 2026-04-28 21:22 | 64.00366 | -22.60540 | 453 ft | 63 kts | 183° |
| 2026-04-28 21:23 | 63.99775 | -22.60541 | 329 ft | 64 kts | 184° |
| 2026-04-28 21:23 | 63.99337 | -22.60534 | 249 ft | 62 kts | 181° |
| 2026-04-28 21:23 | 63.98914 | -22.60538 | 170 ft | 56 kts | 184° |
| 2026-04-28 21:23 | 63.98563 | -22.60549 | 159 ft | 41 kts | 179° |
| 2026-04-28 21:24 | 63.98344 | -22.60543 | 159 ft | 24 kts | 181° |
| 2026-04-28 21:24 | 63.98219 | -22.60545 | 158 ft | 13 kts | 181° |
| 2026-04-28 21:24 | 63.98151 | -22.60545 | 156 ft | 15 kts | 181° |
| 2026-04-28 21:24 | 63.98029 | -22.60546 | 155 ft | 23 kts | 179° |
| 2026-04-28 21:25 | 63.97855 | -22.60545 | 154 ft | 26 kts | 180° |
| 2026-04-28 21:25 | 63.97659 | -22.60545 | 153 ft | 28 kts | 179° |
| 2026-04-28 21:25 | 63.97491 | -22.60546 | 151 ft | 23 kts | 180° |
| 2026-04-28 21:25 | 63.97393 | -22.60424 | 150 ft | 16 kts | 110° |
| 2026-04-28 21:26 | 63.97348 | -22.60178 | 149 ft | 15 kts | 117° |
| 2026-04-28 21:26 | 63.97304 | -22.59944 | 149 ft | 17 kts | 110° |
| 2026-04-28 21:26 | 63.97258 | -22.59689 | 149 ft | 18 kts | 111° |
| 2026-04-28 21:26 | 63.97237 | -22.59434 | 150 ft | 15 kts | 51° |
| 2026-04-28 21:27 | 63.97322 | -22.59336 | 152 ft | 15 kts | 30° |
| 2026-04-28 21:27 | 63.97361 | -22.59173 | 154 ft | 11 kts | 121° |
| 2026-04-28 21:27 | 63.97349 | -22.59119 | 154 ft | 0 kts | 118° |